sensor_id;sensor_type;location;lat;lon;timestamp;P1;durP1;ratioP1;P2;durP2;ratioP2
46348;SDS011;32057;47.830;19.046;2023-05-15T00:00:04;4.53;;;3.22;;
46348;SDS011;32057;47.830;19.046;2023-05-15T00:02:34;5.50;;;3.00;;
46348;SDS011;32057;47.830;19.046;2023-05-15T00:05:02;3.13;;;2.83;;
46348;SDS011;32057;47.830;19.046;2023-05-15T00:07:28;2.25;;;2.05;;
46348;SDS011;32057;47.830;19.046;2023-05-15T00:09:53;3.40;;;1.85;;
46348;SDS011;32057;47.830;19.046;2023-05-15T00:12:19;2.00;;;1.90;;
46348;SDS011;32057;47.830;19.046;2023-05-15T00:14:44;3.42;;;2.58;;
46348;SDS011;32057;47.830;19.046;2023-05-15T00:17:10;2.08;;;1.60;;
46348;SDS011;32057;47.830;19.046;2023-05-15T00:19:36;1.40;;;1.30;;
46348;SDS011;32057;47.830;19.046;2023-05-15T00:22:02;1.50;;;1.45;;
46348;SDS011;32057;47.830;19.046;2023-05-15T00:24:27;2.63;;;1.75;;
46348;SDS011;32057;47.830;19.046;2023-05-15T00:26:52;2.38;;;1.95;;
46348;SDS011;32057;47.830;19.046;2023-05-15T00:29:18;5.20;;;2.20;;
46348;SDS011;32057;47.830;19.046;2023-05-15T00:31:43;1.92;;;1.60;;
46348;SDS011;32057;47.830;19.046;2023-05-15T00:34:08;2.22;;;2.03;;
46348;SDS011;32057;47.830;19.046;2023-05-15T00:36:34;1.27;;;1.27;;
46348;SDS011;32057;47.830;19.046;2023-05-15T00:38:59;1.30;;;1.10;;
46348;SDS011;32057;47.830;19.046;2023-05-15T00:41:25;1.58;;;1.48;;
46348;SDS011;32057;47.830;19.046;2023-05-15T00:43:52;1.50;;;1.40;;
46348;SDS011;32057;47.830;19.046;2023-05-15T00:46:19;1.55;;;1.45;;
46348;SDS011;32057;47.830;19.046;2023-05-15T00:48:46;1.65;;;1.55;;
46348;SDS011;32057;47.830;19.046;2023-05-15T00:51:14;1.98;;;1.65;;
46348;SDS011;32057;47.830;19.046;2023-05-15T00:53:40;1.65;;;1.55;;
46348;SDS011;32057;47.830;19.046;2023-05-15T00:56:07;1.70;;;1.58;;
46348;SDS011;32057;47.830;19.046;2023-05-15T00:58:33;2.25;;;1.80;;
46348;SDS011;32057;47.830;19.046;2023-05-15T01:01:01;1.70;;;1.45;;
46348;SDS011;32057;47.830;19.046;2023-05-15T01:03:27;1.92;;;1.70;;
46348;SDS011;32057;47.830;19.046;2023-05-15T01:05:52;2.15;;;1.58;;
46348;SDS011;32057;47.830;19.046;2023-05-15T01:08:36;1.48;;;1.38;;
46348;SDS011;32057;47.830;19.046;2023-05-15T01:11:11;2.17;;;1.98;;
46348;SDS011;32057;47.830;19.046;2023-05-15T01:13:38;2.60;;;2.08;;
46348;SDS011;32057;47.830;19.046;2023-05-15T01:16:04;2.20;;;2.00;;
46348;SDS011;32057;47.830;19.046;2023-05-15T01:18:30;1.75;;;1.63;;
46348;SDS011;32057;47.830;19.046;2023-05-15T01:35:32;1.50;;;1.40;;
46348;SDS011;32057;47.830;19.046;2023-05-15T01:40:54;1.92;;;1.73;;
46348;SDS011;32057;47.830;19.046;2023-05-15T01:43:41;2.35;;;1.85;;
46348;SDS011;32057;47.830;19.046;2023-05-15T01:46:11;2.00;;;1.90;;
46348;SDS011;32057;47.830;19.046;2023-05-15T01:48:41;2.10;;;1.88;;
46348;SDS011;32057;47.830;19.046;2023-05-15T01:51:09;1.70;;;1.60;;
46348;SDS011;32057;47.830;19.046;2023-05-15T01:53:37;1.40;;;1.30;;
46348;SDS011;32057;47.830;19.046;2023-05-15T01:56:05;2.20;;;1.70;;
46348;SDS011;32057;47.830;19.046;2023-05-15T01:58:33;2.08;;;1.92;;
46348;SDS011;32057;47.830;19.046;2023-05-15T02:01:02;1.85;;;1.75;;
46348;SDS011;32057;47.830;19.046;2023-05-15T02:03:29;1.73;;;1.65;;
46348;SDS011;32057;47.830;19.046;2023-05-15T02:06:00;1.77;;;1.67;;
46348;SDS011;32057;47.830;19.046;2023-05-15T02:08:27;1.73;;;1.63;;
46348;SDS011;32057;47.830;19.046;2023-05-15T02:10:55;2.72;;;2.15;;
46348;SDS011;32057;47.830;19.046;2023-05-15T02:13:22;3.10;;;2.17;;
46348;SDS011;32057;47.830;19.046;2023-05-15T02:15:50;1.73;;;1.63;;
46348;SDS011;32057;47.830;19.046;2023-05-15T02:18:16;1.60;;;1.17;;
46348;SDS011;32057;47.830;19.046;2023-05-15T02:20:41;1.35;;;1.25;;
46348;SDS011;32057;47.830;19.046;2023-05-15T02:23:07;1.70;;;1.60;;
46348;SDS011;32057;47.830;19.046;2023-05-15T02:26:18;2.10;;;1.65;;
46348;SDS011;32057;47.830;19.046;2023-05-15T02:31:29;2.40;;;2.17;;
46348;SDS011;32057;47.830;19.046;2023-05-15T02:34:01;1.90;;;1.73;;
46348;SDS011;32057;47.830;19.046;2023-05-15T02:36:47;2.95;;;1.90;;
46348;SDS011;32057;47.830;19.046;2023-05-15T02:39:17;2.28;;;2.13;;
46348;SDS011;32057;47.830;19.046;2023-05-15T02:41:46;1.85;;;1.75;;
46348;SDS011;32057;47.830;19.046;2023-05-15T02:44:12;2.92;;;2.72;;
46348;SDS011;32057;47.830;19.046;2023-05-15T02:46:39;2.78;;;2.58;;
46348;SDS011;32057;47.830;19.046;2023-05-15T02:49:05;3.38;;;3.08;;
46348;SDS011;32057;47.830;19.046;2023-05-15T02:51:31;1.85;;;1.73;;
46348;SDS011;32057;47.830;19.046;2023-05-15T02:53:58;7.03;;;2.97;;
46348;SDS011;32057;47.830;19.046;2023-05-15T02:56:25;2.53;;;2.30;;
46348;SDS011;32057;47.830;19.046;2023-05-15T02:58:50;2.38;;;2.17;;
46348;SDS011;32057;47.830;19.046;2023-05-15T03:01:15;2.78;;;2.28;;
46348;SDS011;32057;47.830;19.046;2023-05-15T03:03:41;3.40;;;2.22;;
46348;SDS011;32057;47.830;19.046;2023-05-15T03:06:06;2.35;;;2.15;;
46348;SDS011;32057;47.830;19.046;2023-05-15T03:08:32;2.90;;;2.67;;
46348;SDS011;32057;47.830;19.046;2023-05-15T03:10:57;2.85;;;2.65;;
46348;SDS011;32057;47.830;19.046;2023-05-15T03:13:22;2.60;;;2.40;;
46348;SDS011;32057;47.830;19.046;2023-05-15T03:15:48;2.58;;;2.08;;
46348;SDS011;32057;47.830;19.046;2023-05-15T03:18:13;2.90;;;2.17;;
46348;SDS011;32057;47.830;19.046;2023-05-15T03:20:39;2.17;;;1.95;;
46348;SDS011;32057;47.830;19.046;2023-05-15T03:23:04;2.50;;;2.30;;
46348;SDS011;32057;47.830;19.046;2023-05-15T03:25:30;1.77;;;1.65;;
46348;SDS011;32057;47.830;19.046;2023-05-15T03:27:55;2.40;;;2.17;;
46348;SDS011;32057;47.830;19.046;2023-05-15T03:30:21;4.38;;;2.72;;
46348;SDS011;32057;47.830;19.046;2023-05-15T03:32:46;2.13;;;2.00;;
46348;SDS011;32057;47.830;19.046;2023-05-15T03:35:11;2.97;;;2.67;;
46348;SDS011;32057;47.830;19.046;2023-05-15T03:37:37;3.10;;;2.75;;
46348;SDS011;32057;47.830;19.046;2023-05-15T03:40:02;4.28;;;2.20;;
46348;SDS011;32057;47.830;19.046;2023-05-15T03:42:28;3.83;;;2.78;;
46348;SDS011;32057;47.830;19.046;2023-05-15T03:44:54;3.35;;;2.78;;
46348;SDS011;32057;47.830;19.046;2023-05-15T03:47:20;2.92;;;2.63;;
46348;SDS011;32057;47.830;19.046;2023-05-15T03:49:46;2.95;;;2.35;;
46348;SDS011;32057;47.830;19.046;2023-05-15T03:52:11;2.70;;;2.15;;
46348;SDS011;32057;47.830;19.046;2023-05-15T03:54:41;2.30;;;2.13;;
46348;SDS011;32057;47.830;19.046;2023-05-15T03:57:06;2.55;;;1.95;;
46348;SDS011;32057;47.830;19.046;2023-05-15T03:59:32;2.92;;;2.13;;
46348;SDS011;32057;47.830;19.046;2023-05-15T04:01:57;7.47;;;2.58;;
46348;SDS011;32057;47.830;19.046;2023-05-15T04:04:23;2.67;;;2.30;;
46348;SDS011;32057;47.830;19.046;2023-05-15T04:06:49;2.70;;;2.28;;
46348;SDS011;32057;47.830;19.046;2023-05-15T04:09:15;2.13;;;1.92;;
46348;SDS011;32057;47.830;19.046;2023-05-15T04:11:40;2.47;;;2.28;;
46348;SDS011;32057;47.830;19.046;2023-05-15T04:14:05;2.47;;;2.22;;
46348;SDS011;32057;47.830;19.046;2023-05-15T04:16:31;2.33;;;2.13;;
46348;SDS011;32057;47.830;19.046;2023-05-15T04:18:56;3.33;;;3.03;;
46348;SDS011;32057;47.830;19.046;2023-05-15T04:21:22;2.45;;;2.25;;
46348;SDS011;32057;47.830;19.046;2023-05-15T04:23:47;2.85;;;2.65;;
46348;SDS011;32057;47.830;19.046;2023-05-15T04:26:12;3.13;;;2.78;;
46348;SDS011;32057;47.830;19.046;2023-05-15T04:28:38;2.95;;;2.63;;
46348;SDS011;32057;47.830;19.046;2023-05-15T04:31:04;2.53;;;2.20;;
46348;SDS011;32057;47.830;19.046;2023-05-15T04:33:29;2.60;;;2.40;;
46348;SDS011;32057;47.830;19.046;2023-05-15T04:35:54;1.88;;;1.77;;
46348;SDS011;32057;47.830;19.046;2023-05-15T04:38:20;1.67;;;1.55;;
46348;SDS011;32057;47.830;19.046;2023-05-15T04:40:45;1.92;;;1.75;;
46348;SDS011;32057;47.830;19.046;2023-05-15T04:43:11;2.95;;;2.75;;
46348;SDS011;32057;47.830;19.046;2023-05-15T04:45:36;2.47;;;2.28;;
46348;SDS011;32057;47.830;19.046;2023-05-15T04:48:02;1.90;;;1.77;;
46348;SDS011;32057;47.830;19.046;2023-05-15T04:50:28;2.78;;;1.75;;
46348;SDS011;32057;47.830;19.046;2023-05-15T04:52:56;2.38;;;2.17;;
46348;SDS011;32057;47.830;19.046;2023-05-15T04:55:22;2.33;;;2.10;;
46348;SDS011;32057;47.830;19.046;2023-05-15T04:57:47;2.05;;;1.95;;
46348;SDS011;32057;47.830;19.046;2023-05-15T05:00:13;1.90;;;1.80;;
46348;SDS011;32057;47.830;19.046;2023-05-15T05:02:39;2.55;;;2.35;;
46348;SDS011;32057;47.830;19.046;2023-05-15T05:05:07;2.88;;;2.47;;
46348;SDS011;32057;47.830;19.046;2023-05-15T05:07:32;3.00;;;2.67;;
46348;SDS011;32057;47.830;19.046;2023-05-15T05:09:58;2.53;;;2.33;;
46348;SDS011;32057;47.830;19.046;2023-05-15T05:12:24;2.03;;;1.92;;
46348;SDS011;32057;47.830;19.046;2023-05-15T05:14:49;6.03;;;2.25;;
46348;SDS011;32057;47.830;19.046;2023-05-15T05:17:15;4.88;;;2.47;;
46348;SDS011;32057;47.830;19.046;2023-05-15T05:19:40;2.80;;;2.50;;
46348;SDS011;32057;47.830;19.046;2023-05-15T05:22:06;3.85;;;3.55;;
46348;SDS011;32057;47.830;19.046;2023-05-15T05:24:32;3.28;;;2.90;;
46348;SDS011;32057;47.830;19.046;2023-05-15T05:27:01;3.15;;;2.50;;
46348;SDS011;32057;47.830;19.046;2023-05-15T05:29:28;2.75;;;2.50;;
46348;SDS011;32057;47.830;19.046;2023-05-15T05:31:54;2.75;;;2.53;;
46348;SDS011;32057;47.830;19.046;2023-05-15T05:34:20;2.38;;;2.17;;
46348;SDS011;32057;47.830;19.046;2023-05-15T05:36:45;3.40;;;2.97;;
46348;SDS011;32057;47.830;19.046;2023-05-15T05:39:11;4.05;;;2.75;;
46348;SDS011;32057;47.830;19.046;2023-05-15T05:41:36;3.20;;;2.72;;
46348;SDS011;32057;47.830;19.046;2023-05-15T05:44:02;3.38;;;2.47;;
46348;SDS011;32057;47.830;19.046;2023-05-15T05:46:27;3.13;;;2.60;;
46348;SDS011;32057;47.830;19.046;2023-05-15T05:48:53;3.92;;;3.63;;
46348;SDS011;32057;47.830;19.046;2023-05-15T05:51:18;2.80;;;2.60;;
46348;SDS011;32057;47.830;19.046;2023-05-15T05:53:44;3.22;;;2.92;;
46348;SDS011;32057;47.830;19.046;2023-05-15T05:56:09;2.38;;;2.17;;
46348;SDS011;32057;47.830;19.046;2023-05-15T05:58:35;2.45;;;2.25;;
46348;SDS011;32057;47.830;19.046;2023-05-15T06:01:00;3.05;;;2.70;;
46348;SDS011;32057;47.830;19.046;2023-05-15T06:03:26;2.22;;;2.03;;
46348;SDS011;32057;47.830;19.046;2023-05-15T06:05:51;2.33;;;2.13;;
46348;SDS011;32057;47.830;19.046;2023-05-15T06:08:20;2.22;;;1.98;;
46348;SDS011;32057;47.830;19.046;2023-05-15T06:10:45;2.42;;;2.17;;
46348;SDS011;32057;47.830;19.046;2023-05-15T06:13:11;2.47;;;2.28;;
46348;SDS011;32057;47.830;19.046;2023-05-15T06:15:38;2.78;;;2.58;;
46348;SDS011;32057;47.830;19.046;2023-05-15T06:18:04;2.95;;;2.72;;
46348;SDS011;32057;47.830;19.046;2023-05-15T06:20:30;2.17;;;2.03;;
46348;SDS011;32057;47.830;19.046;2023-05-15T06:22:55;1.90;;;1.80;;
46348;SDS011;32057;47.830;19.046;2023-05-15T06:25:21;3.58;;;2.10;;
46348;SDS011;32057;47.830;19.046;2023-05-15T06:27:46;3.50;;;2.67;;
46348;SDS011;32057;47.830;19.046;2023-05-15T06:30:12;2.70;;;2.35;;
46348;SDS011;32057;47.830;19.046;2023-05-15T06:32:38;3.95;;;2.53;;
46348;SDS011;32057;47.830;19.046;2023-05-15T06:35:05;4.20;;;2.88;;
46348;SDS011;32057;47.830;19.046;2023-05-15T06:37:34;3.22;;;2.65;;
46348;SDS011;32057;47.830;19.046;2023-05-15T06:40:00;4.22;;;1.98;;
46348;SDS011;32057;47.830;19.046;2023-05-15T06:42:25;3.13;;;2.90;;
46348;SDS011;32057;47.830;19.046;2023-05-15T06:44:51;2.65;;;2.30;;
46348;SDS011;32057;47.830;19.046;2023-05-15T06:47:16;3.58;;;1.90;;
46348;SDS011;32057;47.830;19.046;2023-05-15T06:49:45;2.10;;;1.90;;
46348;SDS011;32057;47.830;19.046;2023-05-15T06:52:10;2.13;;;1.98;;
46348;SDS011;32057;47.830;19.046;2023-05-15T06:54:36;2.20;;;2.10;;
46348;SDS011;32057;47.830;19.046;2023-05-15T06:57:02;1.67;;;1.42;;
46348;SDS011;32057;47.830;19.046;2023-05-15T06:59:28;1.88;;;1.77;;
46348;SDS011;32057;47.830;19.046;2023-05-15T07:01:53;2.20;;;1.83;;
46348;SDS011;32057;47.830;19.046;2023-05-15T07:04:19;1.75;;;1.65;;
46348;SDS011;32057;47.830;19.046;2023-05-15T07:06:45;1.42;;;1.33;;
46348;SDS011;32057;47.830;19.046;2023-05-15T07:09:11;1.70;;;1.60;;
46348;SDS011;32057;47.830;19.046;2023-05-15T07:11:37;2.17;;;2.00;;
46348;SDS011;32057;47.830;19.046;2023-05-15T07:14:03;1.17;;;1.13;;
46348;SDS011;32057;47.830;19.046;2023-05-15T07:16:30;1.92;;;1.42;;
46348;SDS011;32057;47.830;19.046;2023-05-15T07:18:55;1.30;;;1.20;;
46348;SDS011;32057;47.830;19.046;2023-05-15T07:21:21;1.35;;;1.25;;
46348;SDS011;32057;47.830;19.046;2023-05-15T07:23:46;1.42;;;1.33;;
46348;SDS011;32057;47.830;19.046;2023-05-15T07:26:14;1.20;;;1.10;;
46348;SDS011;32057;47.830;19.046;2023-05-15T07:28:40;2.08;;;1.98;;
46348;SDS011;32057;47.830;19.046;2023-05-15T07:31:06;2.67;;;1.63;;
46348;SDS011;32057;47.830;19.046;2023-05-15T07:33:31;1.85;;;1.75;;
46348;SDS011;32057;47.830;19.046;2023-05-15T07:35:57;1.50;;;1.40;;
46348;SDS011;32057;47.830;19.046;2023-05-15T07:38:22;1.70;;;1.60;;
46348;SDS011;32057;47.830;19.046;2023-05-15T07:40:48;1.90;;;1.80;;
46348;SDS011;32057;47.830;19.046;2023-05-15T07:43:13;1.75;;;1.63;;
46348;SDS011;32057;47.830;19.046;2023-05-15T07:45:38;2.22;;;2.13;;
46348;SDS011;32057;47.830;19.046;2023-05-15T07:48:17;2.03;;;1.70;;
46348;SDS011;32057;47.830;19.046;2023-05-15T07:50:43;1.77;;;1.67;;
46348;SDS011;32057;47.830;19.046;2023-05-15T07:53:10;1.95;;;1.73;;
46348;SDS011;32057;47.830;19.046;2023-05-15T07:55:36;2.05;;;1.88;;
46348;SDS011;32057;47.830;19.046;2023-05-15T07:58:01;1.63;;;1.52;;
46348;SDS011;32057;47.830;19.046;2023-05-15T08:00:27;2.38;;;2.13;;
46348;SDS011;32057;47.830;19.046;2023-05-15T08:02:52;2.72;;;2.22;;
46348;SDS011;32057;47.830;19.046;2023-05-15T08:05:19;1.98;;;1.88;;
46348;SDS011;32057;47.830;19.046;2023-05-15T08:07:44;2.63;;;2.42;;
46348;SDS011;32057;47.830;19.046;2023-05-15T08:10:10;2.42;;;2.22;;
46348;SDS011;32057;47.830;19.046;2023-05-15T08:12:38;2.17;;;1.98;;
46348;SDS011;32057;47.830;19.046;2023-05-15T08:15:10;2.58;;;2.22;;
46348;SDS011;32057;47.830;19.046;2023-05-15T08:17:35;1.73;;;1.63;;
46348;SDS011;32057;47.830;19.046;2023-05-15T08:20:01;5.38;;;1.67;;
46348;SDS011;32057;47.830;19.046;2023-05-15T08:22:27;3.55;;;1.83;;
46348;SDS011;32057;47.830;19.046;2023-05-15T08:24:54;1.60;;;1.48;;
46348;SDS011;32057;47.830;19.046;2023-05-15T08:27:19;1.95;;;1.75;;
46348;SDS011;32057;47.830;19.046;2023-05-15T08:29:45;1.77;;;1.67;;
46348;SDS011;32057;47.830;19.046;2023-05-15T08:32:11;2.60;;;2.40;;
46348;SDS011;32057;47.830;19.046;2023-05-15T08:34:36;1.88;;;1.77;;
46348;SDS011;32057;47.830;19.046;2023-05-15T08:37:02;2.28;;;2.08;;
46348;SDS011;32057;47.830;19.046;2023-05-15T08:39:28;1.70;;;1.60;;
46348;SDS011;32057;47.830;19.046;2023-05-15T08:44:31;1.67;;;1.58;;
46348;SDS011;32057;47.830;19.046;2023-05-15T08:46:57;1.50;;;1.40;;
46348;SDS011;32057;47.830;19.046;2023-05-15T08:51:58;1.70;;;1.60;;
46348;SDS011;32057;47.830;19.046;2023-05-15T08:54:26;2.40;;;1.55;;
46348;SDS011;32057;47.830;19.046;2023-05-15T08:56:52;2.05;;;1.85;;
46348;SDS011;32057;47.830;19.046;2023-05-15T08:59:18;2.50;;;2.30;;
46348;SDS011;32057;47.830;19.046;2023-05-15T09:01:44;1.80;;;1.67;;
46348;SDS011;32057;47.830;19.046;2023-05-15T09:04:09;2.08;;;1.88;;
46348;SDS011;32057;47.830;19.046;2023-05-15T09:06:34;1.98;;;1.75;;
46348;SDS011;32057;47.830;19.046;2023-05-15T09:09:01;1.95;;;1.85;;
46348;SDS011;32057;47.830;19.046;2023-05-15T09:11:29;1.90;;;1.80;;
46348;SDS011;32057;47.830;19.046;2023-05-15T09:13:56;1.67;;;1.58;;
46348;SDS011;32057;47.830;19.046;2023-05-15T09:16:23;1.63;;;1.52;;
46348;SDS011;32057;47.830;19.046;2023-05-15T09:18:49;2.60;;;2.33;;
46348;SDS011;32057;47.830;19.046;2023-05-15T09:21:26;3.42;;;2.70;;
46348;SDS011;32057;47.830;19.046;2023-05-15T09:24:16;1.83;;;1.73;;
46348;SDS011;32057;47.830;19.046;2023-05-15T09:27:09;2.85;;;2.28;;
46348;SDS011;32057;47.830;19.046;2023-05-15T09:29:34;3.20;;;2.35;;
46348;SDS011;32057;47.830;19.046;2023-05-15T09:32:13;3.25;;;2.22;;
46348;SDS011;32057;47.830;19.046;2023-05-15T09:34:40;2.75;;;2.08;;
46348;SDS011;32057;47.830;19.046;2023-05-15T09:37:21;1.88;;;1.77;;
46348;SDS011;32057;47.830;19.046;2023-05-15T09:39:54;2.95;;;2.58;;
46348;SDS011;32057;47.830;19.046;2023-05-15T09:42:19;4.03;;;2.17;;
46348;SDS011;32057;47.830;19.046;2023-05-15T09:44:45;2.42;;;2.20;;
46348;SDS011;32057;47.830;19.046;2023-05-15T09:47:11;4.00;;;2.50;;
46348;SDS011;32057;47.830;19.046;2023-05-15T09:49:37;3.45;;;3.15;;
46348;SDS011;32057;47.830;19.046;2023-05-15T09:52:07;5.40;;;3.15;;
46348;SDS011;32057;47.830;19.046;2023-05-15T09:54:34;4.07;;;2.67;;
46348;SDS011;32057;47.830;19.046;2023-05-15T09:57:07;2.90;;;2.60;;
46348;SDS011;32057;47.830;19.046;2023-05-15T09:59:34;2.55;;;2.05;;
46348;SDS011;32057;47.830;19.046;2023-05-15T10:01:59;2.58;;;1.90;;
46348;SDS011;32057;47.830;19.046;2023-05-15T10:04:25;2.10;;;1.98;;
46348;SDS011;32057;47.830;19.046;2023-05-15T10:06:51;4.75;;;2.53;;
46348;SDS011;32057;47.830;19.046;2023-05-15T10:09:17;2.10;;;1.80;;
46348;SDS011;32057;47.830;19.046;2023-05-15T10:11:48;2.45;;;2.25;;
46348;SDS011;32057;47.830;19.046;2023-05-15T10:14:15;2.38;;;1.77;;
46348;SDS011;32057;47.830;19.046;2023-05-15T10:16:42;2.85;;;2.13;;
46348;SDS011;32057;47.830;19.046;2023-05-15T10:19:09;2.35;;;2.15;;
46348;SDS011;32057;47.830;19.046;2023-05-15T10:21:36;2.47;;;2.13;;
46348;SDS011;32057;47.830;19.046;2023-05-15T10:24:03;1.20;;;1.20;;
46348;SDS011;32057;47.830;19.046;2023-05-15T10:29:08;1.52;;;1.40;;
46348;SDS011;32057;47.830;19.046;2023-05-15T10:31:35;1.30;;;1.20;;
46348;SDS011;32057;47.830;19.046;2023-05-15T10:34:01;2.22;;;1.70;;
46348;SDS011;32057;47.830;19.046;2023-05-15T10:36:28;2.03;;;1.67;;
46348;SDS011;32057;47.830;19.046;2023-05-15T10:38:55;1.55;;;1.45;;
46348;SDS011;32057;47.830;19.046;2023-05-15T10:41:23;1.85;;;1.75;;
46348;SDS011;32057;47.830;19.046;2023-05-15T10:43:51;1.80;;;1.42;;
46348;SDS011;32057;47.830;19.046;2023-05-15T10:46:17;1.70;;;1.60;;
46348;SDS011;32057;47.830;19.046;2023-05-15T10:48:43;1.23;;;1.02;;
46348;SDS011;32057;47.830;19.046;2023-05-15T10:51:13;2.58;;;1.67;;
46348;SDS011;32057;47.830;19.046;2023-05-15T10:53:40;1.77;;;1.13;;
46348;SDS011;32057;47.830;19.046;2023-05-15T10:56:10;1.85;;;1.75;;
46348;SDS011;32057;47.830;19.046;2023-05-15T10:58:37;1.60;;;1.13;;
46348;SDS011;32057;47.830;19.046;2023-05-15T11:01:02;1.85;;;1.20;;
46348;SDS011;32057;47.830;19.046;2023-05-15T11:03:34;2.08;;;1.45;;
46348;SDS011;32057;47.830;19.046;2023-05-15T11:06:08;0.80;;;0.80;;
46348;SDS011;32057;47.830;19.046;2023-05-15T11:08:38;2.50;;;1.67;;
46348;SDS011;32057;47.830;19.046;2023-05-15T11:11:14;6.25;;;2.00;;
46348;SDS011;32057;47.830;19.046;2023-05-15T11:14:12;1.45;;;1.35;;
46348;SDS011;32057;47.830;19.046;2023-05-15T11:24:27;1.00;;;0.90;;
46348;SDS011;32057;47.830;19.046;2023-05-15T11:27:00;0.80;;;0.80;;
46348;SDS011;32057;47.830;19.046;2023-05-15T11:29:26;0.80;;;0.80;;
46348;SDS011;32057;47.830;19.046;2023-05-15T11:31:52;1.00;;;1.00;;
46348;SDS011;32057;47.830;19.046;2023-05-15T11:34:33;0.90;;;0.90;;
46348;SDS011;32057;47.830;19.046;2023-05-15T11:36:59;0.90;;;0.90;;
46348;SDS011;32057;47.830;19.046;2023-05-15T11:39:25;1.33;;;1.30;;
46348;SDS011;32057;47.830;19.046;2023-05-15T11:41:52;1.00;;;0.90;;
46348;SDS011;32057;47.830;19.046;2023-05-15T11:44:19;0.63;;;0.63;;
46348;SDS011;32057;47.830;19.046;2023-05-15T11:46:45;1.50;;;1.40;;
46348;SDS011;32057;47.830;19.046;2023-05-15T11:49:11;0.82;;;0.82;;
46348;SDS011;32057;47.830;19.046;2023-05-15T11:51:36;0.75;;;0.75;;
46348;SDS011;32057;47.830;19.046;2023-05-15T11:54:07;0.90;;;0.90;;
46348;SDS011;32057;47.830;19.046;2023-05-15T11:56:41;0.65;;;0.65;;
46348;SDS011;32057;47.830;19.046;2023-05-15T11:59:13;1.17;;;1.05;;
46348;SDS011;32057;47.830;19.046;2023-05-15T12:01:40;3.10;;;0.77;;
46348;SDS011;32057;47.830;19.046;2023-05-15T12:04:14;0.55;;;0.55;;
46348;SDS011;32057;47.830;19.046;2023-05-15T12:06:41;0.50;;;0.50;;
46348;SDS011;32057;47.830;19.046;2023-05-15T12:09:15;0.63;;;0.63;;
46348;SDS011;32057;47.830;19.046;2023-05-15T12:11:52;0.47;;;0.47;;
46348;SDS011;32057;47.830;19.046;2023-05-15T12:14:29;0.80;;;0.80;;
46348;SDS011;32057;47.830;19.046;2023-05-15T12:16:58;0.47;;;0.47;;
46348;SDS011;32057;47.830;19.046;2023-05-15T12:19:27;0.73;;;0.73;;
46348;SDS011;32057;47.830;19.046;2023-05-15T12:21:52;0.47;;;0.47;;
46348;SDS011;32057;47.830;19.046;2023-05-15T12:24:19;0.50;;;0.50;;
46348;SDS011;32057;47.830;19.046;2023-05-15T12:26:44;4.35;;;0.60;;
46348;SDS011;32057;47.830;19.046;2023-05-15T12:29:10;1.15;;;1.10;;
46348;SDS011;32057;47.830;19.046;2023-05-15T12:31:36;0.45;;;0.45;;
46348;SDS011;32057;47.830;19.046;2023-05-15T12:34:02;0.73;;;0.73;;
46348;SDS011;32057;47.830;19.046;2023-05-15T12:36:28;0.50;;;0.50;;
46348;SDS011;32057;47.830;19.046;2023-05-15T12:38:55;0.50;;;0.50;;
46348;SDS011;32057;47.830;19.046;2023-05-15T12:41:21;0.60;;;0.60;;
46348;SDS011;32057;47.830;19.046;2023-05-15T12:43:50;0.50;;;0.50;;
46348;SDS011;32057;47.830;19.046;2023-05-15T12:46:16;3.55;;;1.13;;
46348;SDS011;32057;47.830;19.046;2023-05-15T12:48:46;0.40;;;0.40;;
46348;SDS011;32057;47.830;19.046;2023-05-15T12:51:12;0.40;;;0.40;;
46348;SDS011;32057;47.830;19.046;2023-05-15T12:53:41;0.30;;;0.30;;
46348;SDS011;32057;47.830;19.046;2023-05-15T12:56:09;0.40;;;0.40;;
46348;SDS011;32057;47.830;19.046;2023-05-15T12:58:40;0.25;;;0.25;;
46348;SDS011;32057;47.830;19.046;2023-05-15T13:01:05;2.55;;;0.50;;
46348;SDS011;32057;47.830;19.046;2023-05-15T13:03:30;0.30;;;0.30;;
46348;SDS011;32057;47.830;19.046;2023-05-15T13:05:56;0.30;;;0.30;;
46348;SDS011;32057;47.830;19.046;2023-05-15T13:08:22;0.35;;;0.35;;
46348;SDS011;32057;47.830;19.046;2023-05-15T13:10:52;0.65;;;0.43;;
46348;SDS011;32057;47.830;19.046;2023-05-15T13:15:47;0.55;;;0.55;;
46348;SDS011;32057;47.830;19.046;2023-05-15T13:18:13;3.53;;;0.70;;
46348;SDS011;32057;47.830;19.046;2023-05-15T13:20:44;3.28;;;0.82;;
46348;SDS011;32057;47.830;19.046;2023-05-15T13:23:12;1.00;;;0.45;;
46348;SDS011;32057;47.830;19.046;2023-05-15T13:25:42;0.57;;;0.57;;
46348;SDS011;32057;47.830;19.046;2023-05-15T13:28:08;0.60;;;0.60;;
46348;SDS011;32057;47.830;19.046;2023-05-15T13:30:35;0.50;;;0.50;;
46348;SDS011;32057;47.830;19.046;2023-05-15T13:33:03;1.05;;;0.50;;
46348;SDS011;32057;47.830;19.046;2023-05-15T13:35:29;0.45;;;0.45;;
46348;SDS011;32057;47.830;19.046;2023-05-15T13:37:55;0.30;;;0.30;;
46348;SDS011;32057;47.830;19.046;2023-05-15T13:40:21;0.43;;;0.43;;
46348;SDS011;32057;47.830;19.046;2023-05-15T13:42:46;0.38;;;0.38;;
46348;SDS011;32057;47.830;19.046;2023-05-15T13:45:12;0.75;;;0.60;;
46348;SDS011;32057;47.830;19.046;2023-05-15T13:47:39;0.60;;;0.60;;
46348;SDS011;32057;47.830;19.046;2023-05-15T13:50:09;0.30;;;0.30;;
46348;SDS011;32057;47.830;19.046;2023-05-15T13:52:36;0.38;;;0.38;;
46348;SDS011;32057;47.830;19.046;2023-05-15T13:55:02;0.20;;;0.20;;
46348;SDS011;32057;47.830;19.046;2023-05-15T13:57:31;0.30;;;0.30;;
46348;SDS011;32057;47.830;19.046;2023-05-15T13:59:57;0.50;;;0.50;;
46348;SDS011;32057;47.830;19.046;2023-05-15T14:02:23;0.32;;;0.32;;
46348;SDS011;32057;47.830;19.046;2023-05-15T14:04:51;0.30;;;0.30;;
46348;SDS011;32057;47.830;19.046;2023-05-15T14:07:17;0.32;;;0.32;;
46348;SDS011;32057;47.830;19.046;2023-05-15T14:09:43;0.47;;;0.47;;
46348;SDS011;32057;47.830;19.046;2023-05-15T14:12:08;0.30;;;0.30;;
46348;SDS011;32057;47.830;19.046;2023-05-15T14:14:34;0.30;;;0.30;;
46348;SDS011;32057;47.830;19.046;2023-05-15T14:16:59;0.52;;;0.50;;
46348;SDS011;32057;47.830;19.046;2023-05-15T14:19:25;0.40;;;0.40;;
46348;SDS011;32057;47.830;19.046;2023-05-15T14:21:50;0.60;;;0.60;;
46348;SDS011;32057;47.830;19.046;2023-05-15T14:24:16;1.50;;;0.80;;
46348;SDS011;32057;47.830;19.046;2023-05-15T14:26:41;3.33;;;0.70;;
46348;SDS011;32057;47.830;19.046;2023-05-15T14:29:08;0.43;;;0.43;;
46348;SDS011;32057;47.830;19.046;2023-05-15T14:31:33;0.60;;;0.60;;
46348;SDS011;32057;47.830;19.046;2023-05-15T14:33:59;2.40;;;0.75;;
46348;SDS011;32057;47.830;19.046;2023-05-15T14:36:25;1.42;;;1.33;;
46348;SDS011;32057;47.830;19.046;2023-05-15T14:38:50;0.73;;;0.63;;
46348;SDS011;32057;47.830;19.046;2023-05-15T14:41:16;0.65;;;0.65;;
46348;SDS011;32057;47.830;19.046;2023-05-15T14:43:41;0.63;;;0.57;;
46348;SDS011;32057;47.830;19.046;2023-05-15T14:46:06;0.30;;;0.30;;
46348;SDS011;32057;47.830;19.046;2023-05-15T14:48:32;1.23;;;0.80;;
46348;SDS011;32057;47.830;19.046;2023-05-15T14:50:58;0.43;;;0.43;;
46348;SDS011;32057;47.830;19.046;2023-05-15T14:53:24;0.40;;;0.40;;
46348;SDS011;32057;47.830;19.046;2023-05-15T14:55:50;0.63;;;0.63;;
46348;SDS011;32057;47.830;19.046;2023-05-15T14:58:16;0.40;;;0.40;;
46348;SDS011;32057;47.830;19.046;2023-05-15T15:00:41;0.28;;;0.28;;
46348;SDS011;32057;47.830;19.046;2023-05-15T15:03:06;0.65;;;0.65;;
46348;SDS011;32057;47.830;19.046;2023-05-15T15:05:32;0.40;;;0.40;;
46348;SDS011;32057;47.830;19.046;2023-05-15T15:08:08;0.60;;;0.60;;
46348;SDS011;32057;47.830;19.046;2023-05-15T15:10:34;1.13;;;0.60;;